Time;durP1;ratioP1;P1;durP2;ratioP2;P2;SDS_P1;SDS_P2;PMS_P1;PMS_P2;Temp;Humidity;BMP_temperature;BMP_pressure;BME280_temperature;BME280_humidity;BME280_pressure;Samples;Min_cycle;Max_cycle;Signal;HPM_P1;HPM_P2
2021/12/01 00:00:41;;;;;;;53.80;26.15;;;10.00;99.90;;;;;;5019993;28;20030;-75
2021/12/01 00:03:06;;;;;;;56.75;26.60;;;10.00;99.90;;;;;;5011467;28;20407;-75
2021/12/01 00:05:33;;;;;;;57.38;26.05;;;10.10;99.90;;;;;;5017557;28;20022;-77
2021/12/01 00:07:59;;;;;;;51.40;24.70;;;10.10;99.90;;;;;;5022767;28;20068;-75
2021/12/01 00:10:27;;;;;;;49.92;23.98;;;10.10;99.90;;;;;;5020378;28;20120;-76
2021/12/01 00:12:53;;;;;;;44.40;21.60;;;10.10;99.90;;;;;;5011417;28;20026;-74
2021/12/01 00:15:20;;;;;;;42.63;20.95;;;10.10;99.90;;;;;;5016458;28;20379;-75
2021/12/01 00:17:46;;;;;;;39.08;20.48;;;10.10;99.90;;;;;;5020505;28;20104;-75
2021/12/01 00:20:14;;;;;;;36.38;17.85;;;10.10;99.90;;;;;;5019328;28;20500;-76
2021/12/01 00:22:41;;;;;;;33.53;17.35;;;10.20;99.90;;;;;;5009790;28;20037;-75
2021/12/01 00:25:08;;;;;;;28.13;15.65;;;10.10;99.90;;;;;;5015071;28;20100;-75
2021/12/01 00:27:34;;;;;;;26.77;15.10;;;10.20;99.90;;;;;;5024477;28;20025;-77
2021/12/01 00:30:00;;;;;;;25.35;12.55;;;10.20;99.90;;;;;;5019584;28;20041;-75
2021/12/01 00:32:26;;;;;;;22.35;11.70;;;10.20;99.90;;;;;;5015235;28;20050;-75
2021/12/01 00:34:53;;;;;;;20.45;10.60;;;10.20;99.90;;;;;;5012641;28;20109;-76
2021/12/01 00:37:19;;;;;;;21.15;11.25;;;10.20;99.90;;;;;;5021314;28;20049;-75
2021/12/01 00:39:45;;;;;;;18.63;9.95;;;10.20;99.90;;;;;;5031065;28;20510;-75
2021/12/01 00:42:11;;;;;;;16.83;9.23;;;10.20;99.90;;;;;;5021784;28;20024;-76
2021/12/01 00:44:45;;;;;;;18.42;10.02;;;10.20;99.90;;;;;;5014159;28;20099;-75
2021/12/01 00:47:12;;;;;;;17.92;9.55;;;10.20;99.90;;;;;;5018869;28;20049;-75
2021/12/01 00:49:38;;;;;;;20.00;10.82;;;10.20;99.90;;;;;;5019152;28;20030;-75
2021/12/01 00:52:04;;;;;;;19.63;10.10;;;10.20;99.90;;;;;;5027542;28;20038;-76
2021/12/01 00:54:29;;;;;;;19.70;10.13;;;10.20;99.90;;;;;;5030086;28;20022;-75
2021/12/01 00:56:55;;;;;;;19.73;9.90;;;10.20;99.90;;;;;;5021061;28;20468;-75
2021/12/01 00:59:20;;;;;;;16.73;9.05;;;10.20;99.90;;;;;;5018212;28;20061;-77
2021/12/01 01:01:47;;;;;;;18.17;9.73;;;10.30;99.90;;;;;;5018803;28;20026;-75
2021/12/01 01:04:13;;;;;;;15.80;8.80;;;10.30;99.90;;;;;;5017451;28;20017;-75
2021/12/01 01:06:39;;;;;;;17.95;9.95;;;10.30;99.90;;;;;;5024724;28;20483;-75
2021/12/01 01:09:06;;;;;;;17.08;10.07;;;10.30;99.90;;;;;;5023021;28;20040;-75
2021/12/01 01:17:22;;;;;;;14.73;8.70;;;10.30;99.90;;;;;;5020465;28;20032;-75
2021/12/01 01:19:47;;;;;;;16.35;8.52;;;10.30;99.90;;;;;;5025126;28;20029;-75
2021/12/01 01:22:13;;;;;;;15.20;8.35;;;10.30;99.90;;;;;;5028974;28;20025;-76
2021/12/01 01:24:38;;;;;;;12.25;7.32;;;10.30;99.90;;;;;;5030858;28;20030;-77
2021/12/01 01:27:04;;;;;;;12.77;7.13;;;10.30;99.90;;;;;;5017071;28;20460;-74
2021/12/01 01:29:34;;;;;;;11.27;6.93;;;10.40;99.90;;;;;;5018174;28;20030;-76
2021/12/01 01:32:00;;;;;;;10.05;6.10;;;10.40;99.90;;;;;;5021708;28;20376;-75
2021/12/01 01:34:26;;;;;;;10.60;6.60;;;10.40;99.90;;;;;;5015074;28;20025;-75
2021/12/01 01:36:52;;;;;;;11.50;6.10;;;10.30;99.90;;;;;;5016177;28;20034;-75
2021/12/01 01:39:18;;;;;;;9.05;5.38;;;10.30;99.90;;;;;;5026434;28;20489;-75
2021/12/01 01:41:44;;;;;;;8.25;5.07;;;10.30;99.90;;;;;;5017114;28;20029;-75
2021/12/01 01:44:10;;;;;;;8.23;5.20;;;10.30;99.90;;;;;;5026274;28;20037;-75
2021/12/01 01:46:38;;;;;;;8.50;5.30;;;10.30;99.90;;;;;;5016767;28;20034;-76
2021/12/01 01:49:20;;;;;;;8.10;5.05;;;10.20;99.90;;;;;;5030395;28;20029;-75
2021/12/01 01:51:49;;;;;;;8.88;5.22;;;10.20;99.90;;;;;;5023477;28;20045;-74
2021/12/01 01:54:15;;;;;;;8.82;5.50;;;10.20;99.90;;;;;;5023959;28;20030;-77
2021/12/01 01:56:43;;;;;;;8.23;5.53;;;10.20;99.90;;;;;;5025881;28;20454;-77
2021/12/01 01:59:09;;;;;;;10.40;6.55;;;10.20;99.90;;;;;;5035621;28;20028;-76
2021/12/01 02:01:44;;;;;;;10.55;6.10;;;10.20;99.90;;;;;;5026007;28;20029;-74
2021/12/01 02:04:11;;;;;;;12.48;6.15;;;10.10;99.90;;;;;;5025329;28;20067;-75
2021/12/01 02:06:37;;;;;;;8.85;5.35;;;10.10;99.90;;;;;;5032120;28;20051;-74
2021/12/01 02:09:04;;;;;;;8.55;5.43;;;10.10;99.90;;;;;;5015689;28;20033;-76
2021/12/01 02:11:30;;;;;;;9.85;5.75;;;10.10;99.90;;;;;;5013442;28;20022;-75
2021/12/01 02:13:56;;;;;;;8.60;5.55;;;10.10;99.90;;;;;;5013809;28;20455;-75
2021/12/01 02:16:22;;;;;;;9.45;5.45;;;10.10;99.90;;;;;;5023102;28;20097;-75
2021/12/01 02:18:48;;;;;;;7.97;5.53;;;10.10;99.90;;;;;;5026061;28;20112;-75
2021/12/01 02:21:15;;;;;;;8.98;6.07;;;10.10;99.90;;;;;;5015520;28;20048;-75
2021/12/01 02:23:44;;;;;;;12.13;6.95;;;10.00;99.90;;;;;;5018898;28;20026;-75
2021/12/01 02:26:11;;;;;;;12.07;6.78;;;10.00;99.90;;;;;;5028991;28;20021;-76
2021/12/01 02:28:38;;;;;;;11.05;6.50;;;10.00;99.90;;;;;;5020446;28;20044;-75
2021/12/01 02:31:04;;;;;;;9.63;6.72;;;9.90;99.90;;;;;;5029762;28;20036;-75
2021/12/01 02:33:30;;;;;;;8.95;7.00;;;10.00;99.90;;;;;;5020881;28;20060;-76
2021/12/01 02:35:55;;;;;;;9.02;6.65;;;9.90;99.90;;;;;;5013774;28;20057;-74
2021/12/01 02:38:22;;;;;;;8.88;6.00;;;9.90;99.90;;;;;;5023583;28;20140;-75
2021/12/01 02:40:48;;;;;;;11.88;6.97;;;9.80;99.90;;;;;;5039285;28;20030;-76
2021/12/01 02:43:14;;;;;;;8.43;5.40;;;9.80;99.90;;;;;;5027281;28;20029;-75
2021/12/01 02:45:40;;;;;;;8.65;6.80;;;9.80;99.90;;;;;;5013934;28;20037;-75
2021/12/01 02:48:10;;;;;;;7.88;5.72;;;9.80;99.90;;;;;;5014289;28;20029;-75
2021/12/01 02:50:35;;;;;;;9.63;6.78;;;9.80;99.90;;;;;;5019661;28;20467;-75
2021/12/01 02:53:01;;;;;;;7.57;5.40;;;9.80;99.90;;;;;;5026477;28;20040;-75
2021/12/01 02:55:28;;;;;;;8.05;4.70;;;9.70;99.90;;;;;;5018103;28;20442;-75
2021/12/01 02:57:55;;;;;;;5.47;4.47;;;9.70;99.90;;;;;;5032367;28;20455;-75
2021/12/01 03:00:23;;;;;;;5.93;5.03;;;9.70;99.90;;;;;;5023601;28;20486;-74
2021/12/01 03:02:50;;;;;;;6.20;4.90;;;9.70;99.90;;;;;;5015174;28;20052;-75
2021/12/01 03:05:19;;;;;;;8.10;5.22;;;9.70;99.90;;;;;;5015640;28;20030;-75
2021/12/01 03:07:45;;;;;;;6.00;4.85;;;9.70;99.90;;;;;;5013728;28;20030;-75
2021/12/01 03:10:12;;;;;;;5.32;3.95;;;9.70;99.90;;;;;;5016990;28;20021;-74
2021/12/01 03:12:38;;;;;;;5.47;4.43;;;9.70;99.90;;;;;;5016456;28;20029;-74
2021/12/01 03:15:06;;;;;;;5.03;4.07;;;9.70;99.90;;;;;;5022276;28;20034;-74
2021/12/01 03:17:33;;;;;;;7.05;3.85;;;9.60;99.90;;;;;;5015711;28;20108;-75
2021/12/01 03:19:59;;;;;;;6.13;4.68;;;9.60;99.90;;;;;;5012635;28;20030;-75
2021/12/01 03:22:25;;;;;;;5.85;3.65;;;9.60;99.90;;;;;;5017623;28;20045;-75
2021/12/01 03:24:54;;;;;;;4.07;3.53;;;9.50;99.90;;;;;;5022728;28;20434;-75
2021/12/01 03:27:20;;;;;;;4.80;3.70;;;9.50;99.90;;;;;;5012567;28;20353;-75
2021/12/01 03:29:48;;;;;;;5.65;3.70;;;9.50;99.90;;;;;;5013575;28;20025;-77
2021/12/01 03:32:14;;;;;;;4.57;3.10;;;9.50;99.90;;;;;;5026945;28;20479;-75
2021/12/01 03:34:41;;;;;;;5.00;3.80;;;9.50;99.90;;;;;;5021625;28;20464;-74
2021/12/01 03:37:07;;;;;;;6.43;3.50;;;9.50;99.90;;;;;;5021802;28;20030;-74
2021/12/01 03:39:32;;;;;;;4.88;3.83;;;9.50;99.90;;;;;;5012991;28;20452;-74
2021/12/01 03:41:58;;;;;;;6.22;3.70;;;9.50;99.90;;;;;;5023818;28;20510;-76
2021/12/01 03:44:24;;;;;;;4.97;3.67;;;9.50;99.90;;;;;;5015810;28;20081;-76
2021/12/01 03:46:50;;;;;;;4.40;3.42;;;9.50;99.90;;;;;;5020003;28;20487;-76
2021/12/01 03:49:15;;;;;;;4.53;3.65;;;9.50;99.90;;;;;;5016738;28;20455;-76
2021/12/01 03:51:41;;;;;;;3.92;3.20;;;9.40;99.90;;;;;;5027267;28;20131;-75
2021/12/01 03:54:06;;;;;;;5.22;3.90;;;9.40;99.90;;;;;;5025877;28;20030;-77
2021/12/01 03:56:33;;;;;;;5.47;3.80;;;9.40;99.90;;;;;;5014500;28;20033;-76
2021/12/01 03:59:00;;;;;;;6.65;3.92;;;9.40;99.90;;;;;;5021059;28;20028;-76
2021/12/01 04:01:26;;;;;;;4.72;3.40;;;9.40;99.90;;;;;;5025142;28;20048;-76
2021/12/01 04:03:52;;;;;;;5.95;3.42;;;9.40;99.90;;;;;;5019093;28;20022;-76
2021/12/01 04:06:17;;;;;;;4.82;3.47;;;9.40;99.90;;;;;;5021106;28;20033;-75
2021/12/01 04:08:43;;;;;;;4.10;3.08;;;9.40;99.90;;;;;;5012439;28;20031;-76
2021/12/01 04:11:09;;;;;;;3.88;2.80;;;9.40;99.90;;;;;;5015621;28;20037;-75
2021/12/01 04:13:35;;;;;;;8.25;3.40;;;9.40;99.90;;;;;;5025070;28;20041;-75
2021/12/01 04:16:01;;;;;;;6.47;3.60;;;9.40;99.90;;;;;;5027635;28;20113;-73
2021/12/01 04:18:26;;;;;;;3.60;2.42;;;9.40;99.90;;;;;;5013266;28;20030;-76
2021/12/01 04:20:53;;;;;;;5.35;2.70;;;9.40;99.90;;;;;;5023156;28;20022;-76
2021/12/01 04:23:19;;;;;;;4.60;2.47;;;9.40;99.90;;;;;;5013236;28;20157;-75
2021/12/01 04:25:44;;;;;;;3.50;2.65;;;9.40;99.90;;;;;;5022810;28;20112;-75
2021/12/01 04:28:10;;;;;;;5.00;2.55;;;9.40;99.90;;;;;;5020375;28;20025;-75
2021/12/01 04:30:35;;;;;;;3.58;2.90;;;9.50;99.90;;;;;;5019110;28;20032;-76
2021/12/01 04:33:01;;;;;;;2.95;2.40;;;9.40;99.90;;;;;;5013650;28;20112;-75
2021/12/01 04:35:28;;;;;;;3.40;2.50;;;9.40;99.90;;;;;;5016112;28;20025;-76
2021/12/01 04:37:54;;;;;;;4.15;2.33;;;9.40;99.90;;;;;;5012912;28;20030;-75
2021/12/01 04:40:20;;;;;;;4.50;3.03;;;9.40;99.90;;;;;;5015258;28;20044;-75
2021/12/01 04:42:46;;;;;;;2.60;2.17;;;9.40;99.90;;;;;;5029526;28;20101;-76
2021/12/01 04:45:14;;;;;;;2.78;2.03;;;9.40;99.90;;;;;;5025789;28;20041;-76
2021/12/01 04:47:45;;;;;;;3.85;2.50;;;9.50;99.90;;;;;;5027683;28;20033;-75
2021/12/01 04:50:12;;;;;;;3.72;2.85;;;9.50;99.90;;;;;;5036848;28;20539;-76
2021/12/01 04:52:39;;;;;;;4.75;3.22;;;9.40;99.90;;;;;;5029401;28;20489;-75
2021/12/01 04:55:05;;;;;;;4.97;3.72;;;9.40;99.90;;;;;;5030243;28;20467;-76
2021/12/01 04:57:31;;;;;;;4.10;3.53;;;9.40;99.90;;;;;;5022466;28;20037;-76
2021/12/01 04:59:56;;;;;;;5.43;3.33;;;9.30;99.90;;;;;;5021548;28;20038;-77
2021/12/01 05:02:22;;;;;;;6.80;4.00;;;9.20;99.90;;;;;;5018683;28;20045;-76
2021/12/01 05:04:48;;;;;;;4.82;3.45;;;9.20;99.90;;;;;;5029966;28;20032;-75
2021/12/01 05:07:13;;;;;;;3.70;3.30;;;9.20;99.90;;;;;;5018690;28;20025;-74
2021/12/01 05:09:39;;;;;;;5.22;3.38;;;9.20;99.90;;;;;;5016406;28;20061;-74
2021/12/01 05:12:09;;;;;;;4.25;3.15;;;9.20;99.90;;;;;;5028624;28;20037;-77
2021/12/01 05:14:36;;;;;;;3.92;3.17;;;9.10;99.90;;;;;;5025434;28;20033;-76
2021/12/01 05:17:03;;;;;;;4.50;3.00;;;9.10;99.90;;;;;;5019114;28;20575;-75
2021/12/01 05:19:28;;;;;;;4.20;3.03;;;9.10;99.90;;;;;;5023784;28;20430;-76
2021/12/01 05:21:55;;;;;;;3.90;2.58;;;9.00;99.90;;;;;;5029871;28;20029;-74
2021/12/01 05:24:20;;;;;;;3.47;2.55;;;9.00;99.90;;;;;;5025779;28;20028;-77
2021/12/01 05:26:46;;;;;;;3.47;2.30;;;9.00;99.90;;;;;;5017191;28;20017;-76
2021/12/01 05:29:12;;;;;;;3.50;2.42;;;9.00;99.90;;;;;;5017514;28;20175;-75
2021/12/01 05:31:37;;;;;;;3.35;2.42;;;8.90;99.90;;;;;;5019592;28;20021;-75
2021/12/01 05:34:03;;;;;;;2.90;1.95;;;8.90;99.90;;;;;;5025162;28;20029;-76
2021/12/01 05:36:29;;;;;;;2.70;1.90;;;8.90;99.90;;;;;;5025453;28;20026;-75
2021/12/01 05:38:55;;;;;;;3.85;1.90;;;8.90;99.90;;;;;;5020995;28;20079;-76
2021/12/01 05:41:20;;;;;;;2.42;1.70;;;8.90;99.90;;;;;;5019732;28;20026;-77
2021/12/01 05:43:46;;;;;;;2.60;1.50;;;8.90;99.90;;;;;;5032658;28;20036;-77
2021/12/01 05:46:12;;;;;;;3.15;1.63;;;8.90;99.90;;;;;;5021045;28;20551;-76
2021/12/01 05:48:37;;;;;;;3.58;1.83;;;8.90;99.90;;;;;;5017687;28;20022;-77
2021/12/01 05:51:03;;;;;;;2.92;1.42;;;8.90;99.90;;;;;;5022909;28;20034;-77
2021/12/01 05:53:29;;;;;;;2.58;1.20;;;8.90;99.90;;;;;;5020054;28;20033;-79
2021/12/01 05:55:55;;;;;;;5.32;1.30;;;8.90;99.90;;;;;;5013944;28;20038;-77
2021/12/01 05:58:21;;;;;;;2.13;1.00;;;8.90;99.90;;;;;;5017473;28;20097;-77
2021/12/01 06:01:03;;;;;;;1.58;0.80;;;8.90;99.90;;;;;;5029907;28;20175;-78
2021/12/01 06:03:30;;;;;;;2.22;1.00;;;8.90;99.90;;;;;;5027492;28;20021;-76
2021/12/01 06:05:56;;;;;;;1.90;0.70;;;8.90;99.90;;;;;;5029547;28;20399;-77
2021/12/01 06:08:21;;;;;;;2.28;0.70;;;8.90;99.90;;;;;;5029927;28;20026;-78
2021/12/01 06:10:47;;;;;;;1.15;0.60;;;8.80;99.90;;;;;;5013750;28;20038;-77
2021/12/01 06:13:16;;;;;;;3.15;0.70;;;8.80;99.90;;;;;;5030321;28;20376;-78
2021/12/01 06:15:42;;;;;;;1.38;0.50;;;8.80;99.90;;;;;;5013317;28;20037;-79
2021/12/01 06:18:08;;;;;;;1.10;0.50;;;8.80;99.90;;;;;;5026069;28;20113;-78
2021/12/01 06:20:34;;;;;;;1.00;0.50;;;8.80;99.90;;;;;;5026146;28;20057;-77
2021/12/01 06:22:59;;;;;;;1.10;0.50;;;8.80;99.90;;;;;;5017739;28;20033;-77
2021/12/01 06:25:25;;;;;;;2.13;0.50;;;8.80;99.90;;;;;;5027129;28;20113;-74
2021/12/01 06:27:51;;;;;;;1.08;0.50;;;8.90;99.90;;;;;;5014867;28;20029;-77
2021/12/01 06:30:17;;;;;;;0.93;0.50;;;8.90;99.90;;;;;;5025250;28;20029;-77
2021/12/01 06:32:42;;;;;;;2.30;0.68;;;8.90;99.90;;;;;;5022107;28;20452;-78
2021/12/01 06:35:08;;;;;;;0.93;0.47;;;9.00;99.90;;;;;;5031878;28;20111;-75
2021/12/01 06:37:34;;;;;;;1.00;0.40;;;9.00;99.90;;;;;;5023430;28;20093;-77
2021/12/01 06:39:59;;;;;;;0.93;0.50;;;9.00;99.90;;;;;;5028198;28;20144;-78
2021/12/01 06:42:25;;;;;;;1.13;0.40;;;9.00;99.90;;;;;;5024950;28;20034;-78
2021/12/01 06:44:50;;;;;;;1.00;0.40;;;9.00;99.90;;;;;;5022027;28;20631;-76
2021/12/01 06:47:17;;;;;;;2.25;0.40;;;9.00;99.90;;;;;;5023261;28;20035;-79
2021/12/01 06:49:45;;;;;;;2.85;0.60;;;9.00;99.90;;;;;;5020471;28;20030;-78
2021/12/01 06:52:12;;;;;;;0.77;0.32;;;9.00;99.90;;;;;;5017268;28;20069;-78
2021/12/01 06:54:38;;;;;;;1.70;0.35;;;9.00;99.90;;;;;;5015157;28;20434;-77
2021/12/01 06:57:04;;;;;;;1.00;0.50;;;9.00;99.90;;;;;;5020101;28;20025;-78
2021/12/01 06:59:30;;;;;;;1.45;0.50;;;9.00;99.90;;;;;;5022223;28;20164;-79
2021/12/01 07:01:56;;;;;;;0.93;0.50;;;9.00;99.90;;;;;;5018394;28;20523;-80
2021/12/01 07:04:23;;;;;;;0.82;0.50;;;9.00;99.90;;;;;;5027610;28;20025;-82
2021/12/01 07:06:48;;;;;;;1.00;0.50;;;9.10;99.90;;;;;;5023737;28;20030;-81
2021/12/01 07:09:19;;;;;;;2.10;0.50;;;9.10;99.90;;;;;;5020873;28;20029;-78
2021/12/01 07:11:45;;;;;;;0.95;0.50;;;9.10;99.90;;;;;;5028908;28;20026;-81
2021/12/01 07:14:11;;;;;;;1.27;0.50;;;9.10;99.90;;;;;;5019702;28;20117;-79
2021/12/01 07:16:37;;;;;;;0.90;0.50;;;9.10;99.90;;;;;;5021067;28;20108;-76
2021/12/01 07:19:03;;;;;;;2.85;0.77;;;9.10;99.90;;;;;;5013443;28;20022;-80
2021/12/01 07:21:29;;;;;;;1.30;0.70;;;9.00;99.90;;;;;;5027106;28;20435;-79
2021/12/01 07:23:54;;;;;;;1.50;1.33;;;9.10;99.90;;;;;;5015464;28;20029;-80
2021/12/01 07:26:20;;;;;;;1.38;0.90;;;9.00;99.90;;;;;;5025785;28;20104;-79
2021/12/01 07:28:45;;;;;;;1.80;0.88;;;9.10;99.90;;;;;;5023294;28;20032;-82
2021/12/01 07:31:11;;;;;;;1.77;1.00;;;9.10;99.90;;;;;;5021751;28;20041;-80
2021/12/01 07:33:36;;;;;;;1.55;1.10;;;9.00;99.90;;;;;;5016069;28;20072;-79
2021/12/01 07:36:04;;;;;;;2.03;1.20;;;9.00;99.90;;;;;;5019732;28;20036;-79
2021/12/01 07:38:30;;;;;;;1.85;1.08;;;9.10;99.90;;;;;;5021441;28;20029;-80
2021/12/01 07:40:55;;;;;;;1.98;1.17;;;9.10;99.90;;;;;;5014229;28;20075;-77
2021/12/01 07:43:21;;;;;;;2.13;1.55;;;9.10;99.90;;;;;;5013292;28;20029;-79
2021/12/01 07:45:47;;;;;;;1.83;1.33;;;9.20;99.90;;;;;;5022136;28;20045;-80
2021/12/01 07:48:13;;;;;;;2.63;1.67;;;9.20;99.90;;;;;;5015920;28;20030;-80
2021/12/01 07:50:39;;;;;;;3.53;2.15;;;9.20;99.90;;;;;;5020087;28;20026;-82
2021/12/01 07:53:05;;;;;;;2.60;2.30;;;9.20;99.90;;;;;;5014400;28;20116;-83
2021/12/01 07:55:30;;;;;;;3.63;2.42;;;9.20;99.90;;;;;;5024060;28;20082;-81
2021/12/01 07:57:56;;;;;;;3.50;2.90;;;9.30;99.90;;;;;;5029219;28;20502;-79
2021/12/01 08:00:22;;;;;;;4.28;3.35;;;9.30;99.90;;;;;;5019890;28;20037;-80
2021/12/01 08:02:47;;;;;;;3.42;2.65;;;9.30;99.90;;;;;;5014591;28;20073;-81
2021/12/01 08:05:13;;;;;;;4.32;3.67;;;9.40;99.90;;;;;;5020864;28;20101;-79
2021/12/01 08:07:39;;;;;;;4.43;3.17;;;9.40;99.90;;;;;;5014599;28;20405;-80
2021/12/01 08:10:06;;;;;;;5.13;3.97;;;9.50;99.90;;;;;;5017549;28;20042;-79
2021/12/01 08:12:34;;;;;;;5.65;4.47;;;9.50;99.90;;;;;;5015899;28;20036;-80
2021/12/01 08:15:01;;;;;;;7.18;4.70;;;9.50;99.90;;;;;;5017209;28;20053;-79
2021/12/01 08:17:26;;;;;;;5.43;4.57;;;9.50;99.90;;;;;;5021677;28;20115;-79
2021/12/01 08:19:52;;;;;;;5.22;4.60;;;9.50;99.90;;;;;;5027080;28;20049;-79
2021/12/01 08:22:17;;;;;;;5.22;4.53;;;9.50;99.90;;;;;;5033042;28;20104;-79
2021/12/01 08:24:43;;;;;;;5.20;4.25;;;9.50;99.90;;;;;;5032462;28;20113;-76
2021/12/01 08:27:09;;;;;;;7.35;5.32;;;9.50;99.90;;;;;;5019878;28;20033;-78
2021/12/01 08:29:34;;;;;;;5.80;5.03;;;9.50;99.90;;;;;;5024642;28;20030;-78
2021/12/01 08:32:00;;;;;;;5.70;5.07;;;9.50;99.90;;;;;;5029011;28;20403;-79
2021/12/01 08:34:25;;;;;;;6.35;4.70;;;9.60;99.90;;;;;;5033544;28;20048;-77
2021/12/01 08:36:51;;;;;;;6.90;5.65;;;9.60;99.90;;;;;;5029535;28;20033;-77
2021/12/01 08:39:17;;;;;;;7.28;5.57;;;9.70;99.90;;;;;;5026820;28;20076;-77
2021/12/01 08:41:43;;;;;;;6.28;5.35;;;9.70;99.90;;;;;;5020356;28;20456;-76
2021/12/01 08:44:10;;;;;;;7.18;5.53;;;9.70;99.90;;;;;;5023063;28;20052;-78
2021/12/01 08:46:35;;;;;;;6.55;5.80;;;9.80;99.90;;;;;;5033143;28;20099;-79
2021/12/01 08:49:01;;;;;;;6.18;5.57;;;9.90;99.90;;;;;;5015608;28;20420;-77
2021/12/01 08:51:27;;;;;;;7.60;6.00;;;9.90;99.90;;;;;;5039321;28;20049;-80
2021/12/01 08:53:53;;;;;;;6.25;5.28;;;9.90;99.90;;;;;;5039199;28;20524;-84
2021/12/01 08:56:18;;;;;;;7.18;6.30;;;9.90;99.90;;;;;;5026633;28;20030;-80
2021/12/01 08:58:44;;;;;;;7.13;5.97;;;9.90;99.90;;;;;;5019197;28;20040;-78
2021/12/01 09:01:10;;;;;;;6.07;5.47;;;9.90;99.90;;;;;;5023406;28;20484;-78
2021/12/01 09:03:36;;;;;;;7.47;6.45;;;9.90;99.90;;;;;;5016593;28;20026;-81
2021/12/01 09:06:03;;;;;;;6.25;5.65;;;9.90;99.90;;;;;;5030685;28;20018;-77
2021/12/01 09:08:28;;;;;;;8.02;5.93;;;9.90;99.90;;;;;;5032862;28;20025;-82
2021/12/01 09:10:58;;;;;;;8.55;6.18;;;9.90;99.90;;;;;;5028138;28;20038;-83
2021/12/01 09:13:26;;;;;;;7.47;5.85;;;9.90;99.90;;;;;;5025841;28;20475;-79
2021/12/01 09:15:56;;;;;;;7.18;6.25;;;9.80;99.90;;;;;;5022535;28;20116;-82
2021/12/01 09:18:27;;;;;;;8.82;5.75;;;9.80;99.90;;;;;;5031760;28;20022;-83
2021/12/01 09:20:53;;;;;;;7.32;5.72;;;9.70;99.90;;;;;;5022988;28;20029;-86
2021/12/01 09:23:19;;;;;;;7.07;6.03;;;9.60;99.90;;;;;;5029982;28;20044;-86
2021/12/01 09:25:45;;;;;;;7.97;5.15;;;9.50;99.90;;;;;;5025730;28;20040;-83
2021/12/01 09:28:14;;;;;;;6.95;2.75;;;9.30;99.90;;;;;;5028720;28;20026;-87
2021/12/01 09:30:40;;;;;;;5.22;1.63;;;9.20;99.90;;;;;;5026665;28;20105;-88
2021/12/01 09:33:05;;;;;;;3.63;0.63;;;9.00;99.90;;;;;;5021040;28;20495;-85
2021/12/01 09:35:31;;;;;;;4.57;1.00;;;8.90;99.90;;;;;;5041557;28;20498;-85
2021/12/01 09:37:57;;;;;;;5.68;0.77;;;8.80;99.90;;;;;;5032586;28;20033;-86
2021/12/01 09:40:23;;;;;;;3.60;0.50;;;8.70;99.90;;;;;;5026688;28;20018;-84
2021/12/01 09:42:52;;;;;;;5.13;0.50;;;8.70;99.90;;;;;;5022943;28;20028;-85
2021/12/01 09:45:20;;;;;;;3.80;0.60;;;8.70;99.90;;;;;;5025678;28;20121;-84
2021/12/01 09:47:47;;;;;;;9.30;1.17;;;8.70;99.90;;;;;;5032777;28;20057;-84
2021/12/01 09:50:13;;;;;;;10.10;0.60;;;8.70;99.90;;;;;;5017875;28;20033;-85
2021/12/01 09:52:39;;;;;;;5.93;0.50;;;8.60;99.90;;;;;;5021336;28;20028;-82
2021/12/01 09:55:06;;;;;;;9.00;0.75;;;8.60;99.90;;;;;;5031490;28;20041;-82
2021/12/01 09:57:32;;;;;;;4.60;0.43;;;8.70;99.90;;;;;;5039476;28;20033;-85
2021/12/01 09:59:58;;;;;;;6.90;0.88;;;8.60;99.90;;;;;;5028637;28;20072;-81
2021/12/01 10:02:25;;;;;;;4.20;0.50;;;8.60;99.90;;;;;;5029678;28;20021;-81
2021/12/01 10:04:51;;;;;;;9.80;0.88;;;8.60;99.90;;;;;;5023979;28;20028;-78
2021/12/01 10:07:18;;;;;;;10.95;0.50;;;8.70;99.90;;;;;;5024905;28;20094;-81
2021/12/01 10:09:56;;;;;;;10.07;0.70;;;8.70;99.90;;;;;;5027979;28;20101;-80
2021/12/01 10:12:23;;;;;;;9.13;0.63;;;8.70;99.90;;;;;;5014653;28;20113;-81
2021/12/01 10:14:51;;;;;;;8.85;0.70;;;8.80;99.90;;;;;;5031200;28;20026;-78
2021/12/01 10:17:31;;;;;;;7.88;0.50;;;8.80;99.90;;;;;;5018896;28;20033;-82
2021/12/01 10:20:18;;;;;;;10.25;0.50;;;8.90;99.90;;;;;;5025159;28;20097;-80
2021/12/01 10:23:07;;;;;;;5.78;0.40;;;8.90;99.90;;;;;;5036651;28;20033;-82
2021/12/01 10:25:33;;;;;;;8.75;0.65;;;9.00;99.90;;;;;;5025877;28;20026;-80
2021/12/01 10:27:58;;;;;;;10.48;0.40;;;9.10;99.90;;;;;;5026352;28;20029;-79
2021/12/01 10:30:45;;;;;;;6.97;0.57;;;9.10;99.90;;;;;;5028762;28;20029;-80
2021/12/01 10:33:13;;;;;;;5.57;0.95;;;9.10;99.90;;;;;;5018875;28;20099;-80
2021/12/01 10:35:39;;;;;;;10.38;0.55;;;9.10;99.90;;;;;;5019064;28;20103;-79
2021/12/01 10:38:07;;;;;;;5.32;0.40;;;9.10;99.90;;;;;;5030456;28;20030;-80
2021/12/01 10:40:37;;;;;;;8.02;0.43;;;9.10;99.90;;;;;;5024746;28;20621;-80
2021/12/01 10:43:10;;;;;;;5.72;0.30;;;9.00;99.90;;;;;;5014801;28;20022;-81
2021/12/01 10:45:45;;;;;;;4.28;0.43;;;8.90;99.90;;;;;;5023046;28;20038;-82
2021/12/01 10:48:19;;;;;;;3.10;0.25;;;8.80;99.90;;;;;;5033960;28;20029;-90
2021/12/01 10:50:45;;;;;;;4.68;0.30;;;8.60;99.90;;;;;;5018720;28;20032;-85
2021/12/01 10:53:18;;;;;;;2.92;0.30;;;8.50;99.90;;;;;;5021074;28;20100;-85
2021/12/01 10:55:53;;;;;;;3.78;0.30;;;8.40;99.90;;;;;;5030106;28;20086;-85
2021/12/01 10:58:19;;;;;;;3.90;0.40;;;8.20;99.90;;;;;;5034443;28;20051;-82
2021/12/01 11:00:51;;;;;;;3.08;0.38;;;8.20;99.90;;;;;;5024620;28;21237;-83
2021/12/01 11:03:24;;;;;;;2.90;0.30;;;8.20;99.90;;;;;;5029950;28;20022;-84
2021/12/01 11:06:08;;;;;;;7.43;0.50;;;8.20;99.90;;;;;;5015387;28;20025;-83
2021/12/01 11:08:37;;;;;;;6.15;0.40;;;8.20;99.90;;;;;;5022876;28;20025;-82
2021/12/01 11:11:07;;;;;;;3.60;0.50;;;8.20;99.90;;;;;;5031514;28;20031;-82
2021/12/01 11:13:33;;;;;;;4.22;0.40;;;8.30;99.90;;;;;;5013311;28;20073;-82
2021/12/01 11:16:02;;;;;;;5.63;0.32;;;8.30;99.90;;;;;;5026988;28;20026;-80
2021/12/01 11:18:31;;;;;;;6.75;0.30;;;8.30;99.90;;;;;;5031401;28;20104;-80
2021/12/01 11:20:59;;;;;;;6.05;0.30;;;8.40;99.90;;;;;;5017539;28;20383;-79
2021/12/01 11:23:32;;;;;;;3.95;0.77;;;8.40;99.90;;;;;;5030828;28;20529;-80
2021/12/01 11:26:05;;;;;;;;;;;8.50;99.90;;;;;;5015300;28;20017;-80
2021/12/01 11:28:37;;;;;;;5.80;0.40;;;8.50;99.90;;;;;;5029176;28;19909;-79
2021/12/01 11:31:08;;;;;;;3.42;0.38;;;8.60;99.90;;;;;;5021622;28;20017;-80
2021/12/01 11:33:34;;;;;;;1.95;0.25;;;8.60;99.90;;;;;;5025622;28;20384;-79
2021/12/01 11:36:09;;;;;;;9.15;0.40;;;8.70;99.90;;;;;;5031778;28;20033;-80
2021/12/01 11:38:36;;;;;;;5.05;0.43;;;8.70;99.90;;;;;;5023874;28;20030;-79
2021/12/01 11:41:05;;;;;;;6.43;0.50;;;8.70;99.90;;;;;;5030903;28;20080;-79
2021/12/01 11:43:34;;;;;;;8.02;1.20;;;8.80;99.90;;;;;;5046831;28;20019;-77
2021/12/01 11:46:01;;;;;;;3.90;0.40;;;8.80;99.90;;;;;;5016649;28;20061;-78
2021/12/01 11:48:30;;;;;;;7.18;0.65;;;8.90;99.90;;;;;;5031197;28;20029;-78
2021/12/01 11:51:18;;;;;;;4.80;0.38;;;8.90;99.90;;;;;;5042019;28;20057;-80
2021/12/01 11:53:56;;;;;;;4.35;0.30;;;8.90;99.90;;;;;;5012347;28;20492;-78
2021/12/01 11:56:29;;;;;;;4.82;0.30;;;8.90;99.90;;;;;;5017558;28;20057;-79
2021/12/01 11:59:13;;;;;;;;;;;9.00;99.90;;;;;;5024350;28;20101;-79
2021/12/01 12:01:43;;;;;;;5.55;0.40;;;9.00;99.90;;;;;;5028541;28;19927;-78
2021/12/01 12:04:12;;;;;;;7.90;0.50;;;9.00;99.90;;;;;;5013059;28;20018;-79
2021/12/01 12:06:49;;;;;;;7.03;0.47;;;9.00;99.90;;;;;;5028235;28;20056;-80
2021/12/01 12:09:18;;;;;;;9.68;1.17;;;9.10;99.90;;;;;;5022822;28;20517;-78
2021/12/01 12:11:50;;;;;;;6.93;0.40;;;9.10;99.90;;;;;;5021746;28;20120;-78
2021/12/01 12:14:20;;;;;;;8.02;0.75;;;9.10;99.90;;;;;;5011702;28;20491;-78
2021/12/01 12:17:03;;;;;;;9.23;0.40;;;9.10;99.90;;;;;;5022775;28;20053;-77
2021/12/01 12:19:53;;;;;;;7.03;0.70;;;9.10;99.90;;;;;;5032221;28;20027;-78
2021/12/01 12:22:46;;;;;;;8.20;0.52;;;9.00;99.90;;;;;;5023694;28;20109;-78
2021/12/01 12:25:33;;;;;;;3.17;0.32;;;9.10;99.90;;;;;;5012411;28;20041;-78
2021/12/01 12:27:58;;;;;;;9.25;0.40;;;9.10;99.90;;;;;;5027773;28;20076;-78
2021/12/01 12:30:30;;;;;;;9.35;0.40;;;9.10;99.90;;;;;;5031333;28;20030;-78
2021/12/01 12:33:17;;;;;;;12.00;0.50;;;9.10;99.90;;;;;;5021407;28;20021;-78
2021/12/01 12:35:44;;;;;;;4.45;0.30;;;9.10;99.90;;;;;;5032357;28;20057;-78
2021/12/01 12:38:11;;;;;;;13.30;0.60;;;9.20;99.90;;;;;;5011506;28;20030;-78
2021/12/01 12:40:39;;;;;;;7.15;0.43;;;9.10;99.90;;;;;;5034740;28;20079;-79
2021/12/01 12:43:05;;;;;;;8.93;0.40;;;9.10;99.90;;;;;;5015680;28;20022;-77
2021/12/01 12:45:31;;;;;;;5.93;0.45;;;9.20;99.90;;;;;;5019097;28;20038;-78
2021/12/01 12:47:57;;;;;;;9.60;0.70;;;9.20;99.90;;;;;;5012921;28;20084;-77
2021/12/01 12:50:24;;;;;;;7.85;0.50;;;9.20;99.90;;;;;;5030917;28;20040;-77
2021/12/01 12:53:03;;;;;;;8.63;0.60;;;9.20;99.90;;;;;;5031359;28;20032;-77
2021/12/01 12:55:29;;;;;;;3.33;0.50;;;9.20;99.90;;;;;;5031612;28;20080;-80
2021/12/01 12:57:56;;;;;;;7.28;0.60;;;9.10;99.90;;;;;;5017910;28;20038;-78
2021/12/01 13:00:53;;;;;;;6.18;0.50;;;9.20;99.90;;;;;;5016120;28;20084;-77